sensor_id;sensor_type;location;lat;lon;timestamp;temperature;humidity
46137;DHT22;31871;49.418;8.752;2022-11-27T00:01:25;5.30;99.90
46137;DHT22;31871;49.418;8.752;2022-11-27T00:03:52;5.40;99.90
46137;DHT22;31871;49.418;8.752;2022-11-27T00:06:20;5.30;99.90
46137;DHT22;31871;49.418;8.752;2022-11-27T00:08:47;5.30;99.90
46137;DHT22;31871;49.418;8.752;2022-11-27T00:11:15;5.20;99.90
46137;DHT22;31871;49.418;8.752;2022-11-27T00:13:41;5.20;99.90
46137;DHT22;31871;49.418;8.752;2022-11-27T00:16:07;5.20;99.90
46137;DHT22;31871;49.418;8.752;2022-11-27T00:18:33;5.10;99.90
46137;DHT22;31871;49.418;8.752;2022-11-27T00:21:04;5.20;99.90
46137;DHT22;31871;49.418;8.752;2022-11-27T00:23:31;5.20;99.90
46137;DHT22;31871;49.418;8.752;2022-11-27T00:25:57;5.10;99.90
46137;DHT22;31871;49.418;8.752;2022-11-27T00:28:22;5.20;99.90
46137;DHT22;31871;49.418;8.752;2022-11-27T00:30:48;5.20;99.90
46137;DHT22;31871;49.418;8.752;2022-11-27T00:33:13;5.10;99.90
46137;DHT22;31871;49.418;8.752;2022-11-27T00:35:39;5.10;99.90
46137;DHT22;31871;49.418;8.752;2022-11-27T00:38:05;5.10;99.90
46137;DHT22;31871;49.418;8.752;2022-11-27T00:40:31;5.10;99.90
46137;DHT22;31871;49.418;8.752;2022-11-27T00:42:56;5.00;99.90
46137;DHT22;31871;49.418;8.752;2022-11-27T00:45:22;5.00;99.90
46137;DHT22;31871;49.418;8.752;2022-11-27T00:47:48;5.00;99.90
46137;DHT22;31871;49.418;8.752;2022-11-27T00:50:14;5.00;99.90
46137;DHT22;31871;49.418;8.752;2022-11-27T00:52:39;5.00;99.90
46137;DHT22;31871;49.418;8.752;2022-11-27T00:55:05;5.00;99.90
46137;DHT22;31871;49.418;8.752;2022-11-27T00:57:31;5.00;99.90
46137;DHT22;31871;49.418;8.752;2022-11-27T00:59:56;4.90;99.90
46137;DHT22;31871;49.418;8.752;2022-11-27T01:02:22;4.90;99.90
46137;DHT22;31871;49.418;8.752;2022-11-27T01:04:48;5.00;99.90
46137;DHT22;31871;49.418;8.752;2022-11-27T01:07:14;5.00;99.90
46137;DHT22;31871;49.418;8.752;2022-11-27T01:09:40;5.10;99.90
46137;DHT22;31871;49.418;8.752;2022-11-27T01:12:06;5.00;99.90
46137;DHT22;31871;49.418;8.752;2022-11-27T01:14:31;5.10;99.90
46137;DHT22;31871;49.418;8.752;2022-11-27T01:16:57;5.10;99.90
46137;DHT22;31871;49.418;8.752;2022-11-27T01:19:23;5.10;99.90
46137;DHT22;31871;49.418;8.752;2022-11-27T01:21:48;5.10;99.90
46137;DHT22;31871;49.418;8.752;2022-11-27T01:24:15;5.00;99.90
46137;DHT22;31871;49.418;8.752;2022-11-27T01:26:41;5.00;99.90
46137;DHT22;31871;49.418;8.752;2022-11-27T01:29:07;5.00;99.90
46137;DHT22;31871;49.418;8.752;2022-11-27T01:31:33;5.00;99.90
46137;DHT22;31871;49.418;8.752;2022-11-27T01:34:04;4.90;99.90
46137;DHT22;31871;49.418;8.752;2022-11-27T01:36:31;4.90;99.90
46137;DHT22;31871;49.418;8.752;2022-11-27T01:38:56;5.00;99.90
46137;DHT22;31871;49.418;8.752;2022-11-27T01:41:28;5.00;99.90
46137;DHT22;31871;49.418;8.752;2022-11-27T01:43:59;5.00;99.90
46137;DHT22;31871;49.418;8.752;2022-11-27T01:46:45;4.90;99.90
46137;DHT22;31871;49.418;8.752;2022-11-27T01:49:24;4.90;99.90
46137;DHT22;31871;49.418;8.752;2022-11-27T01:51:55;4.90;99.90
46137;DHT22;31871;49.418;8.752;2022-11-27T01:54:36;4.90;99.90
46137;DHT22;31871;49.418;8.752;2022-11-27T01:57:09;4.90;99.90
46137;DHT22;31871;49.418;8.752;2022-11-27T01:59:36;4.90;99.90
46137;DHT22;31871;49.418;8.752;2022-11-27T02:02:02;4.90;99.90
46137;DHT22;31871;49.418;8.752;2022-11-27T02:04:28;4.90;99.90
46137;DHT22;31871;49.418;8.752;2022-11-27T02:06:56;4.90;99.90
46137;DHT22;31871;49.418;8.752;2022-11-27T02:09:23;4.90;99.90
46137;DHT22;31871;49.418;8.752;2022-11-27T02:17:33;4.80;99.90
46137;DHT22;31871;49.418;8.752;2022-11-27T02:25:32;4.80;99.90
46137;DHT22;31871;49.418;8.752;2022-11-27T02:28:16;4.80;99.90
46137;DHT22;31871;49.418;8.752;2022-11-27T02:30:53;4.70;99.90
46137;DHT22;31871;49.418;8.752;2022-11-27T02:33:20;4.80;99.90
46137;DHT22;31871;49.418;8.752;2022-11-27T02:38:28;4.80;99.90
46137;DHT22;31871;49.418;8.752;2022-11-27T02:40:59;4.80;99.90
46137;DHT22;31871;49.418;8.752;2022-11-27T02:43:31;4.80;99.90
46137;DHT22;31871;49.418;8.752;2022-11-27T02:45:58;4.80;99.90
46137;DHT22;31871;49.418;8.752;2022-11-27T02:48:30;4.80;99.90
46137;DHT22;31871;49.418;8.752;2022-11-27T02:50:57;4.70;99.90
46137;DHT22;31871;49.418;8.752;2022-11-27T02:53:30;4.70;99.90
46137;DHT22;31871;49.418;8.752;2022-11-27T02:55:57;4.70;99.90
46137;DHT22;31871;49.418;8.752;2022-11-27T02:58:26;4.60;99.90
46137;DHT22;31871;49.418;8.752;2022-11-27T03:00:54;4.60;99.90
46137;DHT22;31871;49.418;8.752;2022-11-27T03:03:27;4.70;99.90
46137;DHT22;31871;49.418;8.752;2022-11-27T03:06:00;4.60;99.90
46137;DHT22;31871;49.418;8.752;2022-11-27T03:08:41;4.70;99.90
46137;DHT22;31871;49.418;8.752;2022-11-27T03:11:10;4.60;99.90
46137;DHT22;31871;49.418;8.752;2022-11-27T03:13:39;4.50;99.90
46137;DHT22;31871;49.418;8.752;2022-11-27T03:21:41;4.50;99.90
46137;DHT22;31871;49.418;8.752;2022-11-27T03:24:08;4.50;99.90
46137;DHT22;31871;49.418;8.752;2022-11-27T03:26:35;4.50;99.90
46137;DHT22;31871;49.418;8.752;2022-11-27T03:29:04;4.50;99.90
46137;DHT22;31871;49.418;8.752;2022-11-27T03:31:30;4.50;99.90
46137;DHT22;31871;49.418;8.752;2022-11-27T03:33:56;4.50;99.90
46137;DHT22;31871;49.418;8.752;2022-11-27T03:36:22;4.40;99.90
46137;DHT22;31871;49.418;8.752;2022-11-27T03:38:50;4.40;99.90
46137;DHT22;31871;49.418;8.752;2022-11-27T03:41:47;4.40;99.90
46137;DHT22;31871;49.418;8.752;2022-11-27T03:47:35;4.30;99.90
46137;DHT22;31871;49.418;8.752;2022-11-27T03:56:03;4.20;99.90
46137;DHT22;31871;49.418;8.752;2022-11-27T03:58:44;4.30;99.90
46137;DHT22;31871;49.418;8.752;2022-11-27T04:01:12;4.20;99.90
46137;DHT22;31871;49.418;8.752;2022-11-27T04:03:38;4.20;99.90
46137;DHT22;31871;49.418;8.752;2022-11-27T04:06:04;4.10;99.90
46137;DHT22;31871;49.418;8.752;2022-11-27T04:08:30;4.10;99.90
46137;DHT22;31871;49.418;8.752;2022-11-27T04:10:56;4.00;99.90
46137;DHT22;31871;49.418;8.752;2022-11-27T04:13:21;4.10;99.90
46137;DHT22;31871;49.418;8.752;2022-11-27T04:15:47;4.00;99.90
46137;DHT22;31871;49.418;8.752;2022-11-27T04:18:12;4.00;99.90
46137;DHT22;31871;49.418;8.752;2022-11-27T04:20:38;4.00;99.90
46137;DHT22;31871;49.418;8.752;2022-11-27T04:23:03;4.00;99.90
46137;DHT22;31871;49.418;8.752;2022-11-27T04:25:29;4.00;99.90
46137;DHT22;31871;49.418;8.752;2022-11-27T04:27:55;4.00;99.90
46137;DHT22;31871;49.418;8.752;2022-11-27T04:30:20;4.00;99.90
46137;DHT22;31871;49.418;8.752;2022-11-27T04:32:46;4.00;99.90
46137;DHT22;31871;49.418;8.752;2022-11-27T04:35:12;4.00;99.90
46137;DHT22;31871;49.418;8.752;2022-11-27T04:37:37;3.90;99.90
46137;DHT22;31871;49.418;8.752;2022-11-27T04:40:04;3.90;99.90
46137;DHT22;31871;49.418;8.752;2022-11-27T04:42:30;3.90;99.90
46137;DHT22;31871;49.418;8.752;2022-11-27T04:44:55;3.90;99.90
46137;DHT22;31871;49.418;8.752;2022-11-27T04:47:21;3.90;99.90
46137;DHT22;31871;49.418;8.752;2022-11-27T04:49:46;3.90;99.90
46137;DHT22;31871;49.418;8.752;2022-11-27T04:52:12;3.80;99.90
46137;DHT22;31871;49.418;8.752;2022-11-27T04:54:37;3.80;99.90
46137;DHT22;31871;49.418;8.752;2022-11-27T04:57:03;3.80;99.90
46137;DHT22;31871;49.418;8.752;2022-11-27T04:59:29;3.80;99.90
46137;DHT22;31871;49.418;8.752;2022-11-27T05:01:54;3.80;99.90
46137;DHT22;31871;49.418;8.752;2022-11-27T05:04:20;3.70;99.90
46137;DHT22;31871;49.418;8.752;2022-11-27T05:06:46;3.70;99.90
46137;DHT22;31871;49.418;8.752;2022-11-27T05:09:12;3.70;99.90
46137;DHT22;31871;49.418;8.752;2022-11-27T05:11:38;3.60;99.90
46137;DHT22;31871;49.418;8.752;2022-11-27T05:14:03;3.60;99.90
46137;DHT22;31871;49.418;8.752;2022-11-27T05:16:50;3.60;99.90
46137;DHT22;31871;49.418;8.752;2022-11-27T05:19:18;3.70;99.90
46137;DHT22;31871;49.418;8.752;2022-11-27T05:21:44;3.70;99.90
46137;DHT22;31871;49.418;8.752;2022-11-27T05:24:10;3.70;99.90
46137;DHT22;31871;49.418;8.752;2022-11-27T05:26:37;3.70;99.90
46137;DHT22;31871;49.418;8.752;2022-11-27T05:29:03;3.70;99.90
46137;DHT22;31871;49.418;8.752;2022-11-27T05:31:28;3.60;99.90
46137;DHT22;31871;49.418;8.752;2022-11-27T05:33:54;3.60;99.90
46137;DHT22;31871;49.418;8.752;2022-11-27T05:36:20;3.60;99.90
46137;DHT22;31871;49.418;8.752;2022-11-27T05:38:45;3.60;99.90
46137;DHT22;31871;49.418;8.752;2022-11-27T05:41:11;3.70;99.90
46137;DHT22;31871;49.418;8.752;2022-11-27T05:43:37;3.70;99.90
46137;DHT22;31871;49.418;8.752;2022-11-27T05:46:07;3.80;99.90
46137;DHT22;31871;49.418;8.752;2022-11-27T05:48:36;3.80;99.90
46137;DHT22;31871;49.418;8.752;2022-11-27T05:51:02;3.70;99.90
46137;DHT22;31871;49.418;8.752;2022-11-27T05:53:28;3.70;99.90
46137;DHT22;31871;49.418;8.752;2022-11-27T05:55:54;3.60;99.90
46137;DHT22;31871;49.418;8.752;2022-11-27T05:58:19;3.60;99.90
46137;DHT22;31871;49.418;8.752;2022-11-27T06:00:45;3.60;99.90
46137;DHT22;31871;49.418;8.752;2022-11-27T06:03:11;3.70;99.90
46137;DHT22;31871;49.418;8.752;2022-11-27T06:05:40;3.70;99.90
46137;DHT22;31871;49.418;8.752;2022-11-27T06:08:06;3.60;99.90
46137;DHT22;31871;49.418;8.752;2022-11-27T06:10:31;3.60;99.90
46137;DHT22;31871;49.418;8.752;2022-11-27T06:12:57;3.60;99.90
46137;DHT22;31871;49.418;8.752;2022-11-27T06:15:23;3.60;99.90
46137;DHT22;31871;49.418;8.752;2022-11-27T06:17:48;3.70;99.90
46137;DHT22;31871;49.418;8.752;2022-11-27T06:20:14;3.80;99.90
46137;DHT22;31871;49.418;8.752;2022-11-27T06:22:40;3.70;99.90
46137;DHT22;31871;49.418;8.752;2022-11-27T06:25:05;3.70;99.90
46137;DHT22;31871;49.418;8.752;2022-11-27T06:27:33;3.70;99.90
46137;DHT22;31871;49.418;8.752;2022-11-27T06:29:59;3.70;99.90
46137;DHT22;31871;49.418;8.752;2022-11-27T06:32:24;3.60;99.90
46137;DHT22;31871;49.418;8.752;2022-11-27T06:34:50;3.60;99.90
46137;DHT22;31871;49.418;8.752;2022-11-27T06:37:15;3.60;99.90
46137;DHT22;31871;49.418;8.752;2022-11-27T06:39:41;3.60;99.90
46137;DHT22;31871;49.418;8.752;2022-11-27T06:42:07;3.60;99.90
46137;DHT22;31871;49.418;8.752;2022-11-27T06:44:32;3.50;99.90
46137;DHT22;31871;49.418;8.752;2022-11-27T06:46:58;3.50;99.90
46137;DHT22;31871;49.418;8.752;2022-11-27T06:49:23;3.40;99.90
46137;DHT22;31871;49.418;8.752;2022-11-27T06:51:49;3.40;99.90
46137;DHT22;31871;49.418;8.752;2022-11-27T06:54:15;3.40;99.90
46137;DHT22;31871;49.418;8.752;2022-11-27T06:56:40;3.30;99.90
46137;DHT22;31871;49.418;8.752;2022-11-27T06:59:06;3.30;99.90
46137;DHT22;31871;49.418;8.752;2022-11-27T07:01:32;3.30;99.90
46137;DHT22;31871;49.418;8.752;2022-11-27T07:03:59;3.20;99.90
46137;DHT22;31871;49.418;8.752;2022-11-27T07:06:25;3.30;99.90
46137;DHT22;31871;49.418;8.752;2022-11-27T07:08:52;3.30;99.90
46137;DHT22;31871;49.418;8.752;2022-11-27T07:11:24;3.20;99.90
46137;DHT22;31871;49.418;8.752;2022-11-27T07:13:52;3.20;99.90
46137;DHT22;31871;49.418;8.752;2022-11-27T07:16:18;3.30;99.90
46137;DHT22;31871;49.418;8.752;2022-11-27T07:18:48;3.30;99.90
46137;DHT22;31871;49.418;8.752;2022-11-27T07:21:15;3.30;99.90
46137;DHT22;31871;49.418;8.752;2022-11-27T07:23:41;3.30;99.90
46137;DHT22;31871;49.418;8.752;2022-11-27T07:26:12;3.40;99.90
46137;DHT22;31871;49.418;8.752;2022-11-27T07:28:38;3.40;99.90
46137;DHT22;31871;49.418;8.752;2022-11-27T07:31:04;3.50;99.90
46137;DHT22;31871;49.418;8.752;2022-11-27T07:33:30;3.50;99.90
46137;DHT22;31871;49.418;8.752;2022-11-27T07:36:22;3.50;99.90
46137;DHT22;31871;49.418;8.752;2022-11-27T07:38:46;3.50;99.90
46137;DHT22;31871;49.418;8.752;2022-11-27T07:41:12;3.50;99.90
46137;DHT22;31871;49.418;8.752;2022-11-27T07:43:38;3.50;99.90
46137;DHT22;31871;49.418;8.752;2022-11-27T07:46:10;3.50;99.90
46137;DHT22;31871;49.418;8.752;2022-11-27T07:48:36;3.60;99.90
46137;DHT22;31871;49.418;8.752;2022-11-27T07:51:14;3.60;99.90
46137;DHT22;31871;49.418;8.752;2022-11-27T07:53:40;3.60;99.90
46137;DHT22;31871;49.418;8.752;2022-11-27T07:56:08;3.60;99.90
46137;DHT22;31871;49.418;8.752;2022-11-27T07:58:34;3.60;99.90
46137;DHT22;31871;49.418;8.752;2022-11-27T08:01:00;3.70;99.90
46137;DHT22;31871;49.418;8.752;2022-11-27T08:03:25;3.70;99.90
46137;DHT22;31871;49.418;8.752;2022-11-27T08:05:51;3.80;99.90
46137;DHT22;31871;49.418;8.752;2022-11-27T08:08:17;3.80;99.90
46137;DHT22;31871;49.418;8.752;2022-11-27T08:10:42;3.90;99.90
46137;DHT22;31871;49.418;8.752;2022-11-27T08:13:09;3.90;99.90
46137;DHT22;31871;49.418;8.752;2022-11-27T08:15:36;4.10;99.90
46137;DHT22;31871;49.418;8.752;2022-11-27T08:18:01;4.20;99.90
46137;DHT22;31871;49.418;8.752;2022-11-27T08:20:27;4.20;99.90
46137;DHT22;31871;49.418;8.752;2022-11-27T08:22:53;4.20;99.90
46137;DHT22;31871;49.418;8.752;2022-11-27T08:25:18;4.20;99.90
46137;DHT22;31871;49.418;8.752;2022-11-27T08:27:44;4.20;99.90
46137;DHT22;31871;49.418;8.752;2022-11-27T08:30:12;4.20;99.90
46137;DHT22;31871;49.418;8.752;2022-11-27T08:32:39;4.20;99.90
46137;DHT22;31871;49.418;8.752;2022-11-27T08:35:05;4.30;99.90
46137;DHT22;31871;49.418;8.752;2022-11-27T08:37:31;4.30;99.90
46137;DHT22;31871;49.418;8.752;2022-11-27T08:39:57;4.30;99.90
46137;DHT22;31871;49.418;8.752;2022-11-27T08:42:22;4.40;99.90
46137;DHT22;31871;49.418;8.752;2022-11-27T08:44:48;4.40;99.90
46137;DHT22;31871;49.418;8.752;2022-11-27T08:47:13;4.50;99.90
46137;DHT22;31871;49.418;8.752;2022-11-27T08:49:41;4.60;99.90
46137;DHT22;31871;49.418;8.752;2022-11-27T08:52:08;4.70;99.90
46137;DHT22;31871;49.418;8.752;2022-11-27T08:54:34;4.70;99.90
46137;DHT22;31871;49.418;8.752;2022-11-27T08:56:59;4.90;99.90
46137;DHT22;31871;49.418;8.752;2022-11-27T08:59:25;4.90;99.90
46137;DHT22;31871;49.418;8.752;2022-11-27T09:01:50;5.00;99.90
46137;DHT22;31871;49.418;8.752;2022-11-27T09:04:16;5.00;99.90
46137;DHT22;31871;49.418;8.752;2022-11-27T09:06:41;5.10;99.90
46137;DHT22;31871;49.418;8.752;2022-11-27T09:09:07;5.10;99.90
46137;DHT22;31871;49.418;8.752;2022-11-27T09:11:34;5.10;99.90
46137;DHT22;31871;49.418;8.752;2022-11-27T09:14:00;5.10;99.90
46137;DHT22;31871;49.418;8.752;2022-11-27T09:16:26;5.10;99.90
46137;DHT22;31871;49.418;8.752;2022-11-27T09:18:53;5.20;99.90
46137;DHT22;31871;49.418;8.752;2022-11-27T09:21:20;5.30;99.90
46137;DHT22;31871;49.418;8.752;2022-11-27T09:23:46;5.50;99.90
46137;DHT22;31871;49.418;8.752;2022-11-27T09:26:15;5.70;99.90
46137;DHT22;31871;49.418;8.752;2022-11-27T09:28:42;5.90;99.90
46137;DHT22;31871;49.418;8.752;2022-11-27T09:31:10;6.10;99.90
46137;DHT22;31871;49.418;8.752;2022-11-27T09:33:38;6.20;99.90
46137;DHT22;31871;49.418;8.752;2022-11-27T09:36:13;6.30;99.90
46137;DHT22;31871;49.418;8.752;2022-11-27T09:38:39;6.40;99.90
46137;DHT22;31871;49.418;8.752;2022-11-27T09:43:58;6.40;99.90
46137;DHT22;31871;49.418;8.752;2022-11-27T09:46:30;6.50;99.90
46137;DHT22;31871;49.418;8.752;2022-11-27T09:48:58;6.50;99.90
46137;DHT22;31871;49.418;8.752;2022-11-27T09:51:33;6.40;99.90
46137;DHT22;31871;49.418;8.752;2022-11-27T09:54:21;6.50;99.90
46137;DHT22;31871;49.418;8.752;2022-11-27T09:56:50;6.50;99.90
46137;DHT22;31871;49.418;8.752;2022-11-27T09:59:21;6.50;99.90
46137;DHT22;31871;49.418;8.752;2022-11-27T10:01:50;6.70;99.90
46137;DHT22;31871;49.418;8.752;2022-11-27T10:04:17;6.90;99.90
46137;DHT22;31871;49.418;8.752;2022-11-27T10:12:34;7.40;99.90
46137;DHT22;31871;49.418;8.752;2022-11-27T10:23:01;7.50;99.90
46137;DHT22;31871;49.418;8.752;2022-11-27T10:25:49;7.80;99.90
46137;DHT22;31871;49.418;8.752;2022-11-27T10:28:39;7.80;99.90
46137;DHT22;31871;49.418;8.752;2022-11-27T10:31:25;7.80;99.90
46137;DHT22;31871;49.418;8.752;2022-11-27T10:33:55;7.80;99.90
46137;DHT22;31871;49.418;8.752;2022-11-27T10:36:54;7.70;99.90
46137;DHT22;31871;49.418;8.752;2022-11-27T10:39:52;7.60;99.90
46137;DHT22;31871;49.418;8.752;2022-11-27T10:42:27;7.70;99.90
46137;DHT22;31871;49.418;8.752;2022-11-27T10:45:00;7.60;99.90
46137;DHT22;31871;49.418;8.752;2022-11-27T10:47:27;7.60;99.90
46137;DHT22;31871;49.418;8.752;2022-11-27T10:49:53;7.60;99.90
46137;DHT22;31871;49.418;8.752;2022-11-27T10:52:19;7.60;99.90
46137;DHT22;31871;49.418;8.752;2022-11-27T10:54:52;7.70;99.90
46137;DHT22;31871;49.418;8.752;2022-11-27T11:00:18;7.90;99.90
46137;DHT22;31871;49.418;8.752;2022-11-27T11:02:44;8.10;99.90
46137;DHT22;31871;49.418;8.752;2022-11-27T11:08:03;8.50;99.90
46137;DHT22;31871;49.418;8.752;2022-11-27T11:13:24;9.00;99.90
46137;DHT22;31871;49.418;8.752;2022-11-27T11:16:03;9.30;99.90
46137;DHT22;31871;49.418;8.752;2022-11-27T11:18:32;9.60;99.90
46137;DHT22;31871;49.418;8.752;2022-11-27T11:21:00;9.60;99.90
46137;DHT22;31871;49.418;8.752;2022-11-27T11:23:32;9.70;99.90
46137;DHT22;31871;49.418;8.752;2022-11-27T11:26:01;9.80;99.90
46137;DHT22;31871;49.418;8.752;2022-11-27T11:28:28;10.00;99.90
46137;DHT22;31871;49.418;8.752;2022-11-27T11:31:00;10.10;99.90
46137;DHT22;31871;49.418;8.752;2022-11-27T11:33:27;10.10;99.90
46137;DHT22;31871;49.418;8.752;2022-11-27T11:35:55;9.90;99.90
46137;DHT22;31871;49.418;8.752;2022-11-27T11:38:30;9.90;99.90
46137;DHT22;31871;49.418;8.752;2022-11-27T11:40:59;10.10;99.90
46137;DHT22;31871;49.418;8.752;2022-11-27T11:43:28;10.30;99.90
46137;DHT22;31871;49.418;8.752;2022-11-27T11:46:06;10.50;99.90
46137;DHT22;31871;49.418;8.752;2022-11-27T11:48:33;10.60;99.90
46137;DHT22;31871;49.418;8.752;2022-11-27T11:51:15;10.60;99.90
46137;DHT22;31871;49.418;8.752;2022-11-27T11:53:44;10.70;99.90
46137;DHT22;31871;49.418;8.752;2022-11-27T11:56:37;10.80;99.90
46137;DHT22;31871;49.418;8.752;2022-11-27T12:05:14;10.80;99.90
46137;DHT22;31871;49.418;8.752;2022-11-27T12:08:14;10.60;99.90
46137;DHT22;31871;49.418;8.752;2022-11-27T12:11:11;10.40;99.90
46137;DHT22;31871;49.418;8.752;2022-11-27T12:25:24;10.20;99.90
46137;DHT22;31871;49.418;8.752;2022-11-27T12:30:42;10.10;99.90
46137;DHT22;31871;49.418;8.752;2022-11-27T12:38:37;10.70;99.90
46137;DHT22;31871;49.418;8.752;2022-11-27T12:41:48;10.80;99.90
46137;DHT22;31871;49.418;8.752;2022-11-27T12:46:57;10.80;99.90
46137;DHT22;31871;49.418;8.752;2022-11-27T12:49:29;10.70;99.90
46137;DHT22;31871;49.418;8.752;2022-11-27T12:52:05;10.50;99.90
46137;DHT22;31871;49.418;8.752;2022-11-27T12:57:50;10.50;99.90
46137;DHT22;31871;49.418;8.752;2022-11-27T13:00:19;10.40;99.90
46137;DHT22;31871;49.418;8.752;2022-11-27T13:03:15;10.30;99.90
46137;DHT22;31871;49.418;8.752;2022-11-27T13:05:52;10.30;99.90
46137;DHT22;31871;49.418;8.752;2022-11-27T13:08:26;10.20;99.90
46137;DHT22;31871;49.418;8.752;2022-11-27T13:10:58;10.20;99.90
46137;DHT22;31871;49.418;8.752;2022-11-27T13:13:32;10.20;99.90
46137;DHT22;31871;49.418;8.752;2022-11-27T13:16:19;10.20;99.90
46137;DHT22;31871;49.418;8.752;2022-11-27T13:21:28;10.20;99.90
46137;DHT22;31871;49.418;8.752;2022-11-27T13:23:54;10.10;99.90
46137;DHT22;31871;49.418;8.752;2022-11-27T13:26:34;10.10;99.90
46137;DHT22;31871;49.418;8.752;2022-11-27T13:29:16;10.10;99.90
46137;DHT22;31871;49.418;8.752;2022-11-27T13:31:51;10.10;99.90
46137;DHT22;31871;49.418;8.752;2022-11-27T13:34:21;10.10;99.90
46137;DHT22;31871;49.418;8.752;2022-11-27T13:36:59;10.00;99.90
46137;DHT22;31871;49.418;8.752;2022-11-27T13:39:35;10.00;99.90
46137;DHT22;31871;49.418;8.752;2022-11-27T13:42:17;9.90;99.90
46137;DHT22;31871;49.418;8.752;2022-11-27T13:44:52;9.90;99.90
46137;DHT22;31871;49.418;8.752;2022-11-27T13:47:20;9.90;99.90
46137;DHT22;31871;49.418;8.752;2022-11-27T13:50:06;9.90;99.90
46137;DHT22;31871;49.418;8.752;2022-11-27T13:52:35;9.80;99.90
46137;DHT22;31871;49.418;8.752;2022-11-27T13:55:06;9.80;99.90
46137;DHT22;31871;49.418;8.752;2022-11-27T13:57:34;9.80;99.90
46137;DHT22;31871;49.418;8.752;2022-11-27T14:02:46;9.70;99.90
46137;DHT22;31871;49.418;8.752;2022-11-27T14:05:17;9.70;99.90
46137;DHT22;31871;49.418;8.752;2022-11-27T14:07:46;9.70;99.90
46137;DHT22;31871;49.418;8.752;2022-11-27T14:10:46;9.60;99.90
46137;DHT22;31871;49.418;8.752;2022-11-27T14:13:12;9.60;99.90
46137;DHT22;31871;49.418;8.752;2022-11-27T14:15:39;9.60;99.90
46137;DHT22;31871;49.418;8.752;2022-11-27T14:18:16;9.50;99.90
46137;DHT22;31871;49.418;8.752;2022-11-27T14:20:50;9.50;99.90
46137;DHT22;31871;49.418;8.752;2022-11-27T14:23:50;9.50;99.90
46137;DHT22;31871;49.418;8.752;2022-11-27T14:26:23;9.50;99.90
46137;DHT22;31871;49.418;8.752;2022-11-27T14:28:55;9.50;99.90
46137;DHT22;31871;49.418;8.752;2022-11-27T14:33:51;9.50;99.90
46137;DHT22;31871;49.418;8.752;2022-11-27T14:36:31;9.50;99.90
46137;DHT22;31871;49.418;8.752;2022-11-27T14:38:59;9.40;99.90
46137;DHT22;31871;49.418;8.752;2022-11-27T14:41:26;9.50;99.90
46137;DHT22;31871;49.418;8.752;2022-11-27T14:44:03;9.50;99.90
46137;DHT22;31871;49.418;8.752;2022-11-27T14:46:31;9.50;99.90
46137;DHT22;31871;49.418;8.752;2022-11-27T14:48:57;9.40;99.90
46137;DHT22;31871;49.418;8.752;2022-11-27T14:51:24;9.40;99.90
46137;DHT22;31871;49.418;8.752;2022-11-27T14:54:01;9.40;99.90
46137;DHT22;31871;49.418;8.752;2022-11-27T14:56:31;9.30;99.90
46137;DHT22;31871;49.418;8.752;2022-11-27T14:58:58;9.30;99.90
46137;DHT22;31871;49.418;8.752;2022-11-27T15:01:30;9.20;99.90
46137;DHT22;31871;49.418;8.752;2022-11-27T15:06:30;9.40;99.90
46137;DHT22;31871;49.418;8.752;2022-11-27T15:08:58;9.40;99.90
46137;DHT22;31871;49.418;8.752;2022-11-27T15:11:24;9.40;99.90
46137;DHT22;31871;49.418;8.752;2022-11-27T15:13:55;9.40;99.90
46137;DHT22;31871;49.418;8.752;2022-11-27T15:16:24;9.40;99.90
46137;DHT22;31871;49.418;8.752;2022-11-27T15:18:58;9.40;99.90
46137;DHT22;31871;49.418;8.752;2022-11-27T15:21:24;9.40;99.90
46137;DHT22;31871;49.418;8.752;2022-11-27T15:23:51;9.40;99.90
46137;DHT22;31871;49.418;8.752;2022-11-27T15:26:37;9.40;99.90
46137;DHT22;31871;49.418;8.752;2022-11-27T15:31:55;9.30;99.90
46137;DHT22;31871;49.418;8.752;2022-11-27T15:34:22;9.30;99.90
46137;DHT22;31871;49.418;8.752;2022-11-27T15:36:57;9.30;99.90
46137;DHT22;31871;49.418;8.752;2022-11-27T15:39:58;9.20;99.90
46137;DHT22;31871;49.418;8.752;2022-11-27T15:42:25;9.10;99.90
46137;DHT22;31871;49.418;8.752;2022-11-27T15:44:53;9.00;99.90
46137;DHT22;31871;49.418;8.752;2022-11-27T15:47:29;9.00;99.90
46137;DHT22;31871;49.418;8.752;2022-11-27T15:49:56;9.00;99.90
46137;DHT22;31871;49.418;8.752;2022-11-27T15:52:22;9.00;99.90
46137;DHT22;31871;49.418;8.752;2022-11-27T15:54:50;9.10;99.90
46137;DHT22;31871;49.418;8.752;2022-11-27T15:57:16;9.10;99.90
46137;DHT22;31871;49.418;8.752;2022-11-27T15:59:42;9.10;99.90
46137;DHT22;31871;49.418;8.752;2022-11-27T16:02:09;9.10;99.90
46137;DHT22;31871;49.418;8.752;2022-11-27T16:04:35;9.10;99.90
46137;DHT22;31871;49.418;8.752;2022-11-27T16:07:00;9.10;99.90
46137;DHT22;31871;49.418;8.752;2022-11-27T16:09:26;9.10;99.90
46137;DHT22;31871;49.418;8.752;2022-11-27T16:11:52;9.00;99.90
46137;DHT22;31871;49.418;8.752;2022-11-27T16:14:17;9.00;99.90
46137;DHT22;31871;49.418;8.752;2022-11-27T16:16:43;9.00;99.90
46137;DHT22;31871;49.418;8.752;2022-11-27T16:19:09;9.00;99.90
46137;DHT22;31871;49.418;8.752;2022-11-27T16:21:37;8.90;99.90
46137;DHT22;31871;49.418;8.752;2022-11-27T16:24:05;8.80;99.90
46137;DHT22;31871;49.418;8.752;2022-11-27T16:26:31;8.70;99.90
46137;DHT22;31871;49.418;8.752;2022-11-27T16:28:57;8.70;99.90
46137;DHT22;31871;49.418;8.752;2022-11-27T16:31:23;8.60;99.90
46137;DHT22;31871;49.418;8.752;2022-11-27T16:33:49;8.70;99.90
46137;DHT22;31871;49.418;8.752;2022-11-27T16:36:16;8.70;99.90
46137;DHT22;31871;49.418;8.752;2022-11-27T16:38:43;8.80;99.90
46137;DHT22;31871;49.418;8.752;2022-11-27T16:41:12;8.80;99.90
46137;DHT22;31871;49.418;8.752;2022-11-27T16:43:42;8.80;99.90
46137;DHT22;31871;49.418;8.752;2022-11-27T16:46:12;8.90;99.90
46137;DHT22;31871;49.418;8.752;2022-11-27T16:48:40;8.90;99.90
46137;DHT22;31871;49.418;8.752;2022-11-27T16:51:14;8.90;99.90
46137;DHT22;31871;49.418;8.752;2022-11-27T16:53:43;8.80;99.90
46137;DHT22;31871;49.418;8.752;2022-11-27T16:56:10;8.90;99.90
46137;DHT22;31871;49.418;8.752;2022-11-27T16:58:38;8.90;99.90
46137;DHT22;31871;49.418;8.752;2022-11-27T17:01:06;8.70;99.90
46137;DHT22;31871;49.418;8.752;2022-11-27T17:03:32;8.70;99.90
46137;DHT22;31871;49.418;8.752;2022-11-27T17:05:58;8.70;99.90
46137;DHT22;31871;49.418;8.752;2022-11-27T17:08:24;8.80;99.90
46137;DHT22;31871;49.418;8.752;2022-11-27T17:10:50;8.80;99.90
46137;DHT22;31871;49.418;8.752;2022-11-27T17:13:16;8.80;99.90
46137;DHT22;31871;49.418;8.752;2022-11-27T17:15:42;8.90;99.90
46137;DHT22;31871;49.418;8.752;2022-11-27T17:18:08;8.80;99.90
46137;DHT22;31871;49.418;8.752;2022-11-27T17:20:34;8.80;99.90
46137;DHT22;31871;49.418;8.752;2022-11-27T17:23:00;8.70;99.90
46137;DHT22;31871;49.418;8.752;2022-11-27T17:25:28;8.70;99.90
46137;DHT22;31871;49.418;8.752;2022-11-27T17:27:53;8.50;99.90
46137;DHT22;31871;49.418;8.752;2022-11-27T17:30:19;8.50;99.90
46137;DHT22;31871;49.418;8.752;2022-11-27T17:32:44;8.60;99.90
46137;DHT22;31871;49.418;8.752;2022-11-27T17:35:10;8.50;99.90
46137;DHT22;31871;49.418;8.752;2022-11-27T17:37:35;8.50;99.90